RCM weather

Skyhaven Airport
Warrensburg, Missouri, United States

Public forecast

Using degrees Fahrenheit for public forecast. Weather courtesy of forecast.io.

METAR (pilot weather report)

Retrieved 2019/08/18 05:35 UTC (7 minutes ago):

KRCM 180535Z AUTO 15005KT 10SM CLR 23/21 A2980 RMK AO2

TAF (pilot weather forecast)

Closest forecast is Whiteman Air Force Base, 12.4 nm (22.9 km) ESE. Retrieved 2019/08/18 03:03 UTC (3 hours ago):

TAF KSZL 180300Z 1803/1909 15009KT 9999 SCT150 QNH2979INS BECMG 1805/1806 18012KT 4800 -TSRA BKN030CB QNH2978INS TEMPO 1807/1809 VRB35G55KT 3200 +TSRA OVC010CB BECMG 1811/1812 20009KT 9999 NSW SCT020 BKN100 QNH2981INS BECMG 1815/1816 21012G18KT 9999 BKN050 BKN100 QNH2978INS TEMPO 1821/1901 VRB15G25KT 6000 -TSRA BKN030CB BECMG 1902/1903 18009KT 9999 SCT050 BKN100 QNH2983INS TX30/1819Z TN22/1812Z